To NAV CANADA Home Page Login to a new session Search on AWWS site Feedback and Comments Disclaimer Vers la page française équivalente Tips FAQ What's new on the site To the Forecasts and Observations / NOTAM section To "File a Flight Plan" website Publications and other links Update of the User's profile FIC Telephone Numbers My Weather Data Folder Route Weather Data Regional Weather Data Local Weather Data To the Forecasts and Observations / NOTAM section
Request Generated 05/23/2015 at 02:39:37 UTC . Weather information available at that time is displayed.

METAR/TAF

HAVRE ST-PIERRE/QC    (show WxCam)

SPECI CYGV 230229Z AUTO 11008KT 9SM BKN009 OVC055 04/04 A2979 RMK
SLP090=
SPECI CYGV 230214Z AUTO 10008KT 9SM FEW006 BKN011 OVC050 04/04 A2979
RMK SLP090=
METAR CYGV 230200Z AUTO 10010G16KT 9SM FEW005 BKN049 OVC065 05/04
A2979 RMK SLP089=
SPECI CYGV 230121Z AUTO 10009KT 9SM SCT006 OVC047 04/04 A2980 RMK
SLP091=
METAR CYGV 230100Z AUTO 10008G15KT 9SM OVC006 04/04 A2980 RMK SLP092=
SPECI CYGV 230056Z AUTO 10006G15KT 9SM BKN006 04/04 A2980 RMK SLP092=
SPECI CYGV 230043Z AUTO 09010G16KT 9SM BKN008 04/04 A2980 RMK SLP092=
METAR CYGV 230000Z AUTO 08012G17KT 9SM FEW009 05/04 A2979 RMK SLP090=

TAF CYGV 230138Z 2302/2314 10008KT P6SM SCT006 BKN025 TEMPO 2302/2305
4SM -RA BR BKN006
FM230500 VRB03KT 1SM -RA BR BKN002 OVC010 TEMPO 2305/2314 6SM -RA
BR SCT002 OVC008 PROB30 2305/2311 1/4SM FG VV001
RMK FCST BASED ON AUTO OBS. NXT FCST BY 230800Z=
Your time UTC time
Weather data provided by Environment Canada and NAV CANADA